クグルクトゥク の空港の天気 - METARとTAF

Coppermine ( CYCO / YCO ) - カナダ ヌナブト準州Kugluktuk
飛行場実況気象(Metar)
観測時間06/17 13:33 MDT (06/17 19:33 UTC)
風向・風速北 4m/s
視程10km以上
天気現象弱い雨
全天の4割程度の雲 雲底高度 1460m
全天を覆う雲 雲底高度 2100m
気温2℃
湿度93%
気圧1009.5hPa
METARCYCO 171933Z 35008KT 12SM -RA SCT048 OVC069 02/01 A2980 RMK SC3AS5 SLP095
過去の天気等 Google飛行場航空写真 Wunderground天気予報

過去48時間のMETAR

飛行場予報(TAF)
発表時間: 6/17 12:42 MDT (6/17 18:42 UTC)
予報対象時間: 17日13時 MDT ~ 18日1時 MDT
風向・風速北 3m/s
視程10km以上
全天の8割程度の雲 雲底高度 1520m
全天を覆う雲 雲底高度 3050m
17日13時 MDT ~ 17日21時 MDT に一時的に
視程10km以上
天気現象弱い雨
全天の8割程度の雲 雲底高度 610m
全天を覆う雲 雲底高度 1520m
17日21時 MDT から
風向・風速北北西 5m/s
視程10km以上
全天の8割程度の雲 雲底高度 460m
17日21時 MDT ~ 18日1時 MDT に一時的に
視程4830m
天気現象もや
全天の8割程度の雲 雲底高度 150m
全天を覆う雲 雲底高度 460m
TAF CYCO 171842Z 1719/1807 35006KT P6SM BKN050 OVC100
TEMPO 1719/1803 P6SM -RA BKN020 OVC050
FM180300 33010KT P6SM BKN015
TEMPO 1803/1807 3SM BR BKN005 OVC015 RMK NXT FCST BY 180100Z